Time;durP1;ratioP1;P1;durP2;ratioP2;P2;SDS_P1;SDS_P2;PMS_P1;PMS_P2;Temp;Humidity;BMP_temperature;BMP_pressure;BME280_temperature;BME280_humidity;BME280_pressure;Samples;Min_cycle;Max_cycle;Signal;HPM_P1;HPM_P2
2021/08/15 00:01:33;;;;;;;10.07;7.63;;;13.50;99.90;;;;;;5079807;28;20052;-89
2021/08/15 00:04:00;;;;;;;10.40;7.88;;;13.60;99.90;;;;;;5079901;28;20048;-88
2021/08/15 00:06:27;;;;;;;9.40;8.40;;;13.70;99.90;;;;;;5097301;28;20044;-89
2021/08/15 00:08:54;;;;;;;8.65;7.85;;;13.60;99.90;;;;;;5079955;28;20048;-88
2021/08/15 00:11:21;;;;;;;10.00;8.35;;;13.70;99.90;;;;;;5079424;28;20055;-88
2021/08/15 00:13:48;;;;;;;12.13;9.88;;;13.60;99.90;;;;;;5079286;28;20168;-89
2021/08/15 00:16:14;;;;;;;11.20;9.18;;;13.50;99.90;;;;;;5079107;28;20047;-89
2021/08/15 00:18:41;;;;;;;11.60;8.48;;;13.50;99.90;;;;;;5079647;28;20142;-88
2021/08/15 00:21:08;;;;;;;11.18;8.40;;;13.40;99.90;;;;;;5079429;28;20048;-89
2021/08/15 00:23:35;;;;;;;8.35;7.40;;;13.20;99.90;;;;;;5079304;28;20051;-88
2021/08/15 00:26:02;;;;;;;9.82;8.18;;;13.10;99.90;;;;;;5079154;28;20047;-89
2021/08/15 00:28:28;;;;;;;9.10;8.20;;;13.10;99.90;;;;;;5078780;28;20132;-89
2021/08/15 00:30:55;;;;;;;10.77;8.73;;;13.00;99.90;;;;;;5079233;28;20048;-89
2021/08/15 00:33:22;;;;;;;9.40;8.40;;;13.00;99.90;;;;;;5078841;28;20151;-89
2021/08/15 00:35:49;;;;;;;9.05;8.10;;;13.00;99.90;;;;;;5079326;28;20123;-89
2021/08/15 00:38:15;;;;;;;9.70;8.77;;;13.00;99.90;;;;;;5090326;28;20099;-89
2021/08/15 00:40:42;;;;;;;10.02;8.52;;;13.00;99.90;;;;;;5090707;28;20063;-89
2021/08/15 00:43:09;;;;;;;10.00;8.45;;;13.00;99.90;;;;;;5097227;28;20044;-89
2021/08/15 00:45:36;;;;;;;9.27;8.38;;;12.90;99.90;;;;;;5078981;28;20135;-89
2021/08/15 00:48:08;;;;;;;12.57;8.65;;;12.80;99.90;;;;;;5079554;28;20060;-89
2021/08/15 00:50:35;;;;;;;9.68;8.52;;;12.80;99.90;;;;;;5079953;28;20056;-89
2021/08/15 00:53:02;;;;;;;10.85;8.90;;;12.70;99.90;;;;;;5079825;28;20048;-89
2021/08/15 00:55:29;;;;;;;10.13;8.88;;;12.70;99.90;;;;;;5078684;28;20397;-89
2021/08/15 00:57:57;;;;;;;9.82;8.55;;;12.70;99.90;;;;;;5079017;28;20086;-89
2021/08/15 01:00:24;;;;;;;10.02;8.82;;;12.70;99.90;;;;;;5078853;28;20526;-89
2021/08/15 01:02:51;;;;;;;10.82;9.07;;;12.70;99.90;;;;;;5079012;28;20048;-89
2021/08/15 01:05:18;;;;;;;9.88;8.88;;;12.70;99.90;;;;;;5077624;28;20147;-88
2021/08/15 01:07:45;;;;;;;10.57;8.93;;;12.70;99.90;;;;;;5078741;28;20458;-88
2021/08/15 01:10:15;;;;;;;10.20;9.15;;;12.70;99.90;;;;;;5078419;28;20055;-89
2021/08/15 01:12:42;;;;;;;19.60;14.52;;;12.90;99.90;;;;;;5096352;28;20051;-89
2021/08/15 01:15:11;;;;;;;11.65;10.25;;;13.00;99.90;;;;;;5078490;28;20142;-89
2021/08/15 01:17:41;;;;;;;10.15;9.15;;;13.00;99.90;;;;;;5078406;28;20507;-88
2021/08/15 01:20:09;;;;;;;9.68;8.20;;;13.00;99.90;;;;;;5078755;28;20052;-89
2021/08/15 01:22:39;;;;;;;13.57;9.30;;;12.90;99.90;;;;;;5078318;28;20109;-89
2021/08/15 01:25:07;;;;;;;11.15;9.55;;;12.90;99.90;;;;;;5078459;28;20055;-88
2021/08/15 01:27:45;;;;;;;13.57;9.02;;;12.90;99.90;;;;;;5078610;28;20139;-89
2021/08/15 01:30:14;;;;;;;9.82;8.48;;;12.80;99.90;;;;;;5087996;28;20468;-89
2021/08/15 01:32:43;;;;;;;9.57;8.25;;;12.70;99.90;;;;;;5090247;28;20055;-89
2021/08/15 01:35:10;;;;;;;11.82;9.90;;;12.70;99.90;;;;;;5084134;28;20076;-88
2021/08/15 01:37:37;;;;;;;9.88;8.75;;;12.70;99.90;;;;;;5077697;28;20548;-89
2021/08/15 01:40:05;;;;;;;9.50;8.32;;;12.80;99.90;;;;;;5077927;28;20135;-88
2021/08/15 01:42:33;;;;;;;11.77;9.05;;;12.80;99.90;;;;;;5077515;28;20546;-89
2021/08/15 01:45:05;;;;;;;11.43;9.30;;;12.90;99.90;;;;;;5077494;28;20059;-88
2021/08/15 01:47:32;;;;;;;10.77;9.68;;;12.90;99.90;;;;;;5096319;28;20070;-89
2021/08/15 01:50:00;;;;;;;16.52;9.73;;;12.90;99.90;;;;;;5079902;28;20504;-89
2021/08/15 01:52:26;;;;;;;9.80;8.80;;;12.90;99.90;;;;;;5095788;28;20048;-89
2021/08/15 01:54:53;;;;;;;11.73;9.20;;;12.90;99.90;;;;;;5078046;28;20047;-89
2021/08/15 01:57:20;;;;;;;9.32;8.27;;;12.80;99.90;;;;;;5089158;28;20107;-89
2021/08/15 01:59:46;;;;;;;9.80;8.15;;;12.70;99.90;;;;;;5084584;28;20039;-89
2021/08/15 02:02:13;;;;;;;12.82;9.45;;;12.60;99.90;;;;;;5077147;28;20055;-88
2021/08/15 02:04:41;;;;;;;10.00;9.00;;;12.70;99.90;;;;;;5076836;28;20496;-88
2021/08/15 02:07:08;;;;;;;13.27;11.57;;;12.80;99.90;;;;;;5077218;28;20109;-88
2021/08/15 02:09:35;;;;;;;11.50;9.88;;;12.80;99.90;;;;;;5095052;28;20061;-89
2021/08/15 02:12:02;;;;;;;9.85;7.95;;;12.80;99.90;;;;;;5077224;28;20048;-89
2021/08/15 02:14:29;;;;;;;9.75;8.68;;;12.80;99.90;;;;;;5076927;28;20060;-89
2021/08/15 02:16:56;;;;;;;11.82;9.80;;;12.70;99.90;;;;;;5076888;28;20052;-89
2021/08/15 02:19:23;;;;;;;10.57;9.43;;;12.60;99.90;;;;;;5077411;28;20044;-89
2021/08/15 02:21:51;;;;;;;10.45;8.07;;;12.60;99.90;;;;;;5076984;28;20513;-89
2021/08/15 02:24:18;;;;;;;10.30;8.60;;;12.60;99.90;;;;;;5076834;28;20123;-89
2021/08/15 02:26:44;;;;;;;10.77;8.07;;;12.60;99.90;;;;;;5076580;28;20074;-89
2021/08/15 02:29:11;;;;;;;8.55;7.75;;;12.60;99.90;;;;;;5076839;28;20143;-89
2021/08/15 02:31:38;;;;;;;10.07;9.00;;;12.50;99.90;;;;;;5076740;28;20139;-89
2021/08/15 02:34:04;;;;;;;13.68;9.00;;;12.50;99.90;;;;;;5076858;28;20155;-89
2021/08/15 02:36:31;;;;;;;13.70;9.90;;;12.40;99.90;;;;;;5076291;28;20375;-88
2021/08/15 02:38:58;;;;;;;9.75;8.85;;;12.40;99.90;;;;;;5076907;28;20131;-89
2021/08/15 02:41:25;;;;;;;11.80;9.80;;;12.30;99.90;;;;;;5076659;28;20523;-89
2021/08/15 02:43:51;;;;;;;12.18;8.88;;;12.30;99.90;;;;;;5076491;28;20471;-89
2021/08/15 02:46:18;;;;;;;11.80;9.90;;;12.20;99.90;;;;;;5076382;28;20139;-89
2021/08/15 02:48:45;;;;;;;10.55;9.15;;;12.30;99.90;;;;;;5076691;28;20058;-89
2021/08/15 02:51:12;;;;;;;12.50;9.27;;;12.30;99.90;;;;;;5076558;28;20047;-89
2021/08/15 02:53:38;;;;;;;12.02;9.68;;;12.30;99.90;;;;;;5076392;28;20054;-89
2021/08/15 02:56:05;;;;;;;13.93;9.90;;;12.30;99.90;;;;;;5076190;28;20131;-89
2021/08/15 02:58:32;;;;;;;11.90;9.00;;;12.20;99.90;;;;;;5076244;28;20062;-89
2021/08/15 03:00:59;;;;;;;9.98;8.50;;;12.10;99.90;;;;;;5076569;28;20223;-88
2021/08/15 03:03:26;;;;;;;10.70;9.70;;;12.10;99.90;;;;;;5075988;28;20052;-89
2021/08/15 03:05:52;;;;;;;10.43;8.35;;;12.00;99.90;;;;;;5076323;28;20101;-89
2021/08/15 03:08:19;;;;;;;10.60;8.95;;;12.10;99.90;;;;;;5093853;28;20050;-89
2021/08/15 03:10:46;;;;;;;12.98;9.88;;;12.00;99.90;;;;;;5075918;28;20075;-89
2021/08/15 03:13:13;;;;;;;12.85;9.98;;;12.00;99.90;;;;;;5076066;28;20056;-89
2021/08/15 03:15:40;;;;;;;11.55;10.30;;;11.90;99.90;;;;;;5087947;28;20040;-89
2021/08/15 03:18:07;;;;;;;10.25;9.10;;;12.00;99.90;;;;;;5087211;28;20048;-88
2021/08/15 03:20:34;;;;;;;9.65;8.65;;;11.90;99.90;;;;;;5076740;28;20058;-89
2021/08/15 03:23:00;;;;;;;11.60;9.20;;;11.80;99.90;;;;;;5075974;28;20067;-89
2021/08/15 03:25:27;;;;;;;11.23;9.32;;;11.70;99.90;;;;;;5075717;28;20135;-89
2021/08/15 03:27:54;;;;;;;10.57;8.48;;;11.70;99.90;;;;;;5075193;28;20135;-89
2021/08/15 03:30:21;;;;;;;10.65;9.50;;;11.60;99.90;;;;;;5075764;28;20131;-88
2021/08/15 03:32:47;;;;;;;11.23;9.52;;;11.60;99.90;;;;;;5075953;28;20047;-89
2021/08/15 03:35:14;;;;;;;9.68;8.77;;;11.60;99.90;;;;;;5075500;28;20135;-89
2021/08/15 03:37:41;;;;;;;10.50;8.90;;;11.50;99.90;;;;;;5075634;28;20120;-89
2021/08/15 03:40:08;;;;;;;10.50;9.38;;;11.50;99.90;;;;;;5076065;28;20048;-89
2021/08/15 03:42:36;;;;;;;10.30;8.82;;;11.50;99.90;;;;;;5075754;28;20156;-88
2021/08/15 03:45:04;;;;;;;9.70;8.80;;;11.50;99.90;;;;;;5075869;28;20470;-89
2021/08/15 03:47:32;;;;;;;9.73;8.70;;;11.50;99.90;;;;;;5076109;28;20139;-89
2021/08/15 03:50:04;;;;;;;9.48;8.50;;;11.50;99.90;;;;;;5085123;28;20070;-89
2021/08/15 03:52:30;;;;;;;13.88;10.50;;;11.40;99.90;;;;;;5088605;28;20064;-89
2021/08/15 03:54:57;;;;;;;11.88;10.38;;;11.40;99.90;;;;;;5082059;28;20131;-90
2021/08/15 03:57:24;;;;;;;13.38;10.30;;;11.30;99.90;;;;;;5075799;28;20048;-89
2021/08/15 03:59:51;;;;;;;12.25;10.27;;;11.20;99.90;;;;;;5075749;28;20449;-89
2021/08/15 04:02:17;;;;;;;11.27;9.15;;;11.10;99.90;;;;;;5075519;28;20048;-88
2021/08/15 04:04:44;;;;;;;12.30;10.23;;;11.10;99.90;;;;;;5075865;28;20493;-89
2021/08/15 04:07:11;;;;;;;11.30;9.40;;;11.10;99.90;;;;;;5075515;28;20109;-88
2021/08/15 04:09:38;;;;;;;10.88;9.75;;;11.10;99.90;;;;;;5075823;28;20083;-89
2021/08/15 04:12:05;;;;;;;11.90;10.10;;;11.20;99.90;;;;;;5075598;28;20050;-89
2021/08/15 04:14:31;;;;;;;16.40;10.48;;;11.20;99.90;;;;;;5075439;28;20097;-89
2021/08/15 04:16:58;;;;;;;13.57;10.48;;;11.20;99.90;;;;;;5075857;28;20055;-89
2021/08/15 04:19:25;;;;;;;11.73;9.98;;;11.20;99.90;;;;;;5075869;28;20059;-89
2021/08/15 04:21:51;;;;;;;12.43;10.95;;;11.30;99.90;;;;;;5075677;28;20044;-89
2021/08/15 04:24:18;;;;;;;11.93;9.52;;;11.40;99.90;;;;;;5075750;28;20138;-88
2021/08/15 04:26:46;;;;;;;14.50;9.98;;;11.40;99.90;;;;;;5075660;28;20393;-89
2021/08/15 04:29:13;;;;;;;11.55;9.38;;;11.40;99.90;;;;;;5075650;28;20054;-89
2021/08/15 04:31:41;;;;;;;9.90;8.88;;;11.40;99.90;;;;;;5075679;28;20071;-88
2021/08/15 04:34:08;;;;;;;12.45;10.55;;;11.40;99.90;;;;;;5083722;28;20068;-89
2021/08/15 04:36:35;;;;;;;18.05;10.80;;;11.50;99.90;;;;;;5088620;28;20135;-89
2021/08/15 04:39:03;;;;;;;16.48;11.57;;;11.60;99.90;;;;;;5077852;28;20130;-88
2021/08/15 04:41:30;;;;;;;17.00;13.57;;;11.60;99.90;;;;;;5079167;28;20074;-89
2021/08/15 04:43:56;;;;;;;12.93;10.70;;;11.60;99.90;;;;;;5079205;28;20075;-88
2021/08/15 04:46:23;;;;;;;15.35;9.48;;;11.60;99.90;;;;;;5079049;28;20510;-88
2021/08/15 04:48:50;;;;;;;11.07;9.02;;;11.70;99.90;;;;;;5078983;28;20048;-88
2021/08/15 04:51:17;;;;;;;10.98;9.68;;;11.80;99.90;;;;;;5078769;28;20070;-89
2021/08/15 04:53:44;;;;;;;9.55;8.65;;;11.80;99.90;;;;;;5078648;28;20050;-89
2021/08/15 04:56:10;;;;;;;9.60;8.55;;;11.90;99.90;;;;;;5078401;28;20044;-88
2021/08/15 04:58:37;;;;;;;9.48;8.57;;;11.90;99.90;;;;;;5078643;28;20135;-89
2021/08/15 05:01:04;;;;;;;10.80;8.98;;;12.00;99.90;;;;;;5078842;28;20146;-89
2021/08/15 05:03:31;;;;;;;9.95;8.95;;;12.00;99.90;;;;;;5078517;28;20477;-89
2021/08/15 05:05:58;;;;;;;12.10;9.00;;;12.00;99.90;;;;;;5078397;28;20446;-89
2021/08/15 05:08:25;;;;;;;12.05;9.30;;;12.10;99.90;;;;;;5078430;28;20139;-89
2021/08/15 05:10:53;;;;;;;10.20;9.20;;;12.10;99.90;;;;;;5078554;28;20473;-89
2021/08/15 05:13:19;;;;;;;11.45;9.50;;;12.10;99.90;;;;;;5078549;28;20484;-89
2021/08/15 05:15:46;;;;;;;12.40;9.15;;;12.10;99.90;;;;;;5078243;28;20058;-89
2021/08/15 05:18:15;;;;;;;13.50;9.25;;;12.20;99.90;;;;;;5078352;28;20051;-89
2021/08/15 05:20:42;;;;;;;11.38;9.10;;;12.40;99.90;;;;;;5078420;28;20155;-89
2021/08/15 05:23:09;;;;;;;12.27;8.05;;;12.50;99.90;;;;;;5078257;28;20126;-89
2021/08/15 05:25:35;;;;;;;11.98;8.70;;;12.70;99.90;;;;;;5078405;28;20050;-89
2021/08/15 05:28:03;;;;;;;12.20;7.18;;;13.10;99.90;;;;;;5078563;28;20052;-90
2021/08/15 05:30:34;;;;;;;6.78;5.38;;;14.10;99.90;;;;;;5077969;28;20126;-89
2021/08/15 05:33:00;;;;;;;9.07;5.90;;;15.50;99.90;;;;;;5078263;28;20142;-89
2021/08/15 05:35:27;;;;;;;9.43;4.85;;;16.70;99.90;;;;;;5077650;28;20052;-89
2021/08/15 05:37:54;;;;;;;5.10;4.60;;;17.90;99.90;;;;;;5077748;28;20052;-89
2021/08/15 05:40:21;;;;;;;6.57;4.78;;;18.60;99.90;;;;;;5078211;28;20060;-89
2021/08/15 05:42:51;;;;;;;6.85;4.38;;;19.90;99.90;;;;;;5078710;28;20047;-89
2021/08/15 05:45:18;;;;;;;6.35;4.95;;;20.80;99.90;;;;;;5077827;28;20065;-89
2021/08/15 05:47:44;;;;;;;5.60;5.00;;;21.50;99.90;;;;;;5078548;28;20062;-88
2021/08/15 05:50:11;;;;;;;6.78;5.10;;;22.30;99.90;;;;;;5078107;28;20130;-89
2021/08/15 05:52:38;;;;;;;5.35;4.82;;;22.80;99.90;;;;;;5080636;28;20526;-89
2021/08/15 05:55:06;;;;;;;6.78;5.18;;;23.20;99.90;;;;;;5089341;28;20140;-89
2021/08/15 05:57:33;;;;;;;4.40;4.07;;;23.60;99.90;;;;;;5080465;28;20131;-89
2021/08/15 06:00:00;;;;;;;5.80;4.18;;;23.80;99.90;;;;;;5077644;28;20052;-89
2021/08/15 06:02:27;;;;;;;6.80;4.90;;;24.30;99.90;;;;;;5077514;28;20135;-89
2021/08/15 06:04:54;;;;;;;5.53;4.40;;;25.00;99.90;;;;;;5077655;28;20051;-89
2021/08/15 06:07:21;;;;;;;4.63;4.18;;;25.10;99.90;;;;;;5077727;28;20135;-89
2021/08/15 06:09:48;;;;;;;4.50;4.10;;;25.80;99.70;;;;;;5081117;28;20095;-90
2021/08/15 06:12:15;;;;;;;5.35;4.85;;;25.70;97.60;;;;;;5087876;28;20180;-89
2021/08/15 06:14:42;;;;;;;4.70;4.25;;;25.70;97.70;;;;;;5089178;28;20115;-90
2021/08/15 06:17:08;;;;;;;4.53;4.13;;;25.90;96.80;;;;;;5077478;28;20040;-90
2021/08/15 06:19:35;;;;;;;5.20;4.00;;;25.70;96.70;;;;;;5077306;28;20139;-88
2021/08/15 06:22:03;;;;;;;5.80;4.30;;;25.80;97.00;;;;;;5077405;28;20403;-89
2021/08/15 06:24:29;;;;;;;6.70;5.18;;;26.70;95.00;;;;;;5076993;28;20070;-90
2021/08/15 06:26:56;;;;;;;4.43;4.07;;;26.10;95.30;;;;;;5077086;28;20107;-90
2021/08/15 06:29:23;;;;;;;5.00;4.20;;;25.70;95.50;;;;;;5076741;28;20407;-89
2021/08/15 06:31:50;;;;;;;5.78;4.53;;;25.50;95.70;;;;;;5077235;28;20054;-89
2021/08/15 06:34:17;;;;;;;4.57;4.20;;;24.70;96.60;;;;;;5076859;28;20059;-87
2021/08/15 06:36:44;;;;;;;5.28;4.22;;;24.30;97.60;;;;;;5076812;28;20052;-89
2021/08/15 06:39:10;;;;;;;4.93;4.25;;;23.90;99.90;;;;;;5076990;28;20138;-89
2021/08/15 06:41:37;;;;;;;16.27;6.55;;;24.20;99.10;;;;;;5077133;28;20138;-89
2021/08/15 06:44:04;;;;;;;18.10;5.72;;;24.30;99.50;;;;;;5076904;28;20130;-88
2021/08/15 06:46:31;;;;;;;19.95;6.20;;;24.40;98.60;;;;;;5076522;28;20056;-88
2021/08/15 06:48:58;;;;;;;21.13;6.40;;;24.30;99.00;;;;;;5076646;28;20089;-88
2021/08/15 06:51:25;;;;;;;21.60;6.53;;;24.60;99.40;;;;;;5076667;28;20048;-89
2021/08/15 06:53:52;;;;;;;18.30;5.53;;;25.60;97.80;;;;;;5076484;28;20048;-89
2021/08/15 06:56:18;;;;;;;19.77;6.72;;;26.50;95.90;;;;;;5076354;28;20404;-89
2021/08/15 06:58:45;;;;;;;22.83;6.78;;;26.70;95.60;;;;;;5076632;28;20044;-88
2021/08/15 07:01:12;;;;;;;25.20;6.85;;;27.00;94.30;;;;;;5076252;28;20135;-89
2021/08/15 07:03:39;;;;;;;19.70;6.10;;;27.80;93.30;;;;;;5075917;28;20075;-89
2021/08/15 07:06:06;;;;;;;25.45;6.93;;;28.30;91.40;;;;;;5076359;28;20052;-90
2021/08/15 07:08:33;;;;;;;16.08;6.43;;;29.40;88.10;;;;;;5076632;28;20127;-88
2021/08/15 07:11:00;;;;;;;13.45;5.18;;;29.80;84.80;;;;;;5078802;28;20068;-89
2021/08/15 07:13:27;;;;;;;23.33;6.13;;;29.90;80.80;;;;;;5096151;28;20050;-88
2021/08/15 07:15:54;;;;;;;23.23;6.53;;;29.60;79.40;;;;;;5079201;28;20052;-88
2021/08/15 07:18:21;;;;;;;25.02;6.40;;;29.40;80.30;;;;;;5076240;28;20060;-88
2021/08/15 07:20:49;;;;;;;13.20;4.90;;;28.60;80.10;;;;;;5076254;28;20139;-88
2021/08/15 07:23:16;;;;;;;10.95;5.10;;;27.70;81.90;;;;;;5075974;28;20143;-88
2021/08/15 07:25:43;;;;;;;12.88;5.15;;;27.60;84.00;;;;;;5076234;28;20177;-88
2021/08/15 07:28:09;;;;;;;12.20;5.25;;;27.50;83.80;;;;;;5076111;28;20043;-88
2021/08/15 07:30:36;;;;;;;16.17;5.75;;;27.50;83.90;;;;;;5076150;28;20373;-88
2021/08/15 07:33:05;;;;;;;16.58;5.70;;;27.70;86.30;;;;;;5076335;28;20044;-88
2021/08/15 07:35:34;;;;;;;23.80;6.65;;;28.20;83.40;;;;;;5075534;28;20134;-89
2021/08/15 07:38:02;;;;;;;18.75;6.80;;;29.70;81.60;;;;;;5075744;28;20471;-87
2021/08/15 07:40:29;;;;;;;16.30;6.03;;;30.70;80.40;;;;;;5076107;28;20055;-88
2021/08/15 07:42:56;;;;;;;18.48;6.00;;;32.40;73.40;;;;;;5076903;28;20068;-87
2021/08/15 07:45:28;;;;;;;11.25;4.65;;;32.90;70.30;;;;;;5075996;28;20102;-88
2021/08/15 07:47:55;;;;;;;9.35;4.07;;;33.50;67.20;;;;;;5076352;28;20055;-87
2021/08/15 07:50:24;;;;;;;9.63;4.13;;;34.70;62.70;;;;;;5075769;28;20142;-88
2021/08/15 07:52:51;;;;;;;7.13;3.70;;;35.10;60.20;;;;;;5076084;28;20131;-87
2021/08/15 07:55:19;;;;;;;6.55;3.53;;;35.10;60.60;;;;;;5076073;28;20051;-87
2021/08/15 07:57:46;;;;;;;6.65;3.03;;;35.60;58.00;;;;;;5076257;28;20074;-86
2021/08/15 08:00:13;;;;;;;8.57;3.50;;;36.10;56.90;;;;;;5075846;28;20056;-87
2021/08/15 08:02:40;;;;;;;4.88;3.03;;;35.20;56.80;;;;;;5075528;28;20077;-86
2021/08/15 08:05:07;;;;;;;6.55;3.70;;;35.00;56.90;;;;;;5075998;28;20484;-86
2021/08/15 08:07:34;;;;;;;5.47;3.30;;;34.30;58.40;;;;;;5076213;28;20408;-85
2021/08/15 08:10:01;;;;;;;4.20;3.30;;;33.90;58.90;;;;;;5076383;28;20051;-87
2021/08/15 08:12:31;;;;;;;5.38;3.38;;;33.80;59.50;;;;;;5076329;28;20583;-87
2021/08/15 08:14:58;;;;;;;9.48;3.40;;;34.40;60.70;;;;;;5078311;28;20094;-87
2021/08/15 08:17:25;;;;;;;4.18;3.10;;;35.00;58.60;;;;;;5079696;28;20048;-85
2021/08/15 08:19:52;;;;;;;6.63;3.47;;;35.20;59.30;;;;;;5079665;28;20126;-86
2021/08/15 08:22:18;;;;;;;3.53;3.00;;;35.50;58.00;;;;;;5079280;28;20054;-86
2021/08/15 08:24:45;;;;;;;4.32;3.20;;;35.80;57.20;;;;;;5079583;28;20040;-87
2021/08/15 08:27:12;;;;;;;4.88;3.08;;;35.10;57.10;;;;;;5079453;28;20044;-87
2021/08/15 08:29:38;;;;;;;5.80;3.55;;;34.80;58.00;;;;;;5080318;28;20072;-87
2021/08/15 08:32:05;;;;;;;5.18;3.17;;;34.50;57.50;;;;;;5084985;28;20056;-86
2021/08/15 08:34:32;;;;;;;6.30;3.50;;;34.20;58.80;;;;;;5082003;28;20135;-86
2021/08/15 08:36:59;;;;;;;4.68;3.05;;;34.90;59.00;;;;;;5076806;28;20113;-87
2021/08/15 08:39:29;;;;;;;3.70;3.08;;;35.30;57.90;;;;;;5079288;28;20044;-86
2021/08/15 08:42:01;;;;;;;3.53;2.85;;;35.80;57.30;;;;;;5079279;28;20051;-87
2021/08/15 08:44:30;;;;;;;3.35;3.00;;;36.40;56.90;;;;;;5078955;28;20047;-89
2021/08/15 08:47:01;;;;;;;5.53;3.58;;;35.50;57.60;;;;;;5079065;28;20058;-89
2021/08/15 08:49:29;;;;;;;4.25;3.17;;;36.10;57.90;;;;;;5079045;28;20044;-89
2021/08/15 08:51:56;;;;;;;4.35;3.47;;;37.70;57.20;;;;;;5079262;28;20147;-88
2021/08/15 08:54:27;;;;;;;5.13;3.63;;;37.50;56.30;;;;;;5078887;28;20503;-90
2021/08/15 08:56:54;;;;;;;7.13;3.17;;;38.90;53.70;;;;;;5078741;28;20048;-90
2021/08/15 08:59:21;;;;;;;4.32;3.08;;;38.20;53.90;;;;;;5078697;28;20385;-92
2021/08/15 09:01:48;;;;;;;3.40;3.10;;;38.60;53.80;;;;;;5079070;28;20067;-87
2021/08/15 09:04:15;;;;;;;5.97;3.42;;;38.20;53.60;;;;;;5078860;28;20151;-88
2021/08/15 09:06:42;;;;;;;5.80;3.45;;;38.10;53.90;;;;;;5078793;28;20056;-88
2021/08/15 09:09:20;;;;;;;4.47;3.33;;;38.30;54.00;;;;;;5078455;28;20131;-87
2021/08/15 09:11:50;;;;;;;5.97;3.40;;;38.30;53.30;;;;;;5078810;28;20064;-90
2021/08/15 09:14:26;;;;;;;6.57;3.28;;;38.70;53.50;;;;;;5078784;28;20064;-88
2021/08/15 09:17:06;;;;;;;4.22;3.13;;;39.40;52.70;;;;;;5078705;28;20062;-88
2021/08/15 09:19:50;;;;;;;5.00;3.20;;;39.60;50.80;;;;;;5078508;28;20102;-88
2021/08/15 09:22:16;;;;;;;;;;;40.30;51.00;;;;;;5078856;28;20143;-87
2021/08/15 09:25:09;;;;;;;6.93;2.92;;;40.70;49.50;;;;;;5078257;28;19920;-89
2021/08/15 09:27:37;;;;;;;3.80;3.17;;;40.30;49.30;;;;;;5079205;28;20107;-87
2021/08/15 09:30:17;;;;;;;5.10;2.83;;;39.80;50.60;;;;;;5078543;28;20500;-89
2021/08/15 09:32:52;;;;;;;8.50;3.00;;;40.20;50.00;;;;;;5078469;28;20071;-89
2021/08/15 09:35:29;;;;;;;4.05;2.83;;;39.40;49.80;;;;;;5078032;28;20052;-87
2021/08/15 09:38:08;;;;;;;4.70;2.50;;;39.90;50.20;;;;;;5077804;28;20062;-87
2021/08/15 09:40:47;;;;;;;2.60;2.40;;;41.20;48.40;;;;;;5078760;28;20586;-87
2021/08/15 09:43:19;;;;;;;3.50;2.40;;;40.70;47.10;;;;;;5079314;28;20044;-89
2021/08/15 09:45:48;;;;;;;5.30;3.10;;;40.10;49.00;;;;;;5078224;28;20048;-87
2021/08/15 09:48:32;;;;;;;5.10;2.75;;;38.80;50.00;;;;;;5077795;28;20048;-87
2021/08/15 09:51:10;;;;;;;4.38;2.50;;;38.50;50.60;;;;;;5080426;28;20052;-87
2021/08/15 09:53:40;;;;;;;4.85;2.85;;;37.90;50.00;;;;;;5083648;28;20048;-88
2021/08/15 09:56:07;;;;;;;3.88;2.45;;;38.30;49.40;;;;;;5077608;28;20083;-88
2021/08/15 09:58:34;;;;;;;2.72;2.25;;;38.10;50.70;;;;;;5077871;28;20048;-88
2021/08/15 10:01:04;;;;;;;5.75;2.53;;;38.20;50.40;;;;;;5077790;28;20052;-87
2021/08/15 10:03:31;;;;;;;6.15;2.78;;;37.70;49.20;;;;;;5077586;28;20044;-89
2021/08/15 10:05:59;;;;;;;6.88;2.88;;;37.80;50.50;;;;;;5077544;28;20075;-86
2021/08/15 10:08:27;;;;;;;4.50;2.50;;;38.90;49.70;;;;;;5077454;28;20105;-88
2021/08/15 10:10:54;;;;;;;6.88;2.78;;;39.60;49.70;;;;;;5077664;28;20054;-87
2021/08/15 10:13:21;;;;;;;6.03;1.95;;;39.80;48.10;;;;;;5077480;28;20461;-88
2021/08/15 10:16:05;;;;;;;5.30;2.30;;;40.90;48.40;;;;;;5077259;28;20560;-87
2021/08/15 10:18:37;;;;;;;6.25;2.00;;;42.70;45.80;;;;;;5077195;28;20047;-87
2021/08/15 10:21:11;;;;;;;4.13;2.25;;;42.20;44.30;;;;;;5077741;28;20078;-91
2021/08/15 10:23:41;;;;;;;2.40;2.20;;;41.60;45.60;;;;;;5077339;28;20145;-87
2021/08/15 10:26:26;;;;;;;2.90;1.98;;;42.20;44.90;;;;;;5077059;28;20048;-89
2021/08/15 10:28:55;;;;;;;2.83;2.00;;;42.10;44.40;;;;;;5077203;28;20067;-88
2021/08/15 10:31:21;;;;;;;2.17;1.80;;;42.60;44.40;;;;;;5077146;28;20476;-87
2021/08/15 10:33:54;;;;;;;2.17;1.98;;;41.90;42.50;;;;;;5077061;28;20050;-87
2021/08/15 10:36:33;;;;;;;2.87;1.70;;;41.60;43.30;;;;;;5076517;28;20078;-87
2021/08/15 10:39:21;;;;;;;3.42;1.80;;;41.60;44.30;;;;;;5077602;28;20301;-90
2021/08/15 10:41:49;;;;;;;4.68;1.90;;;41.50;43.60;;;;;;5077045;28;20390;-89
2021/08/15 10:44:16;;;;;;;1.63;1.52;;;40.30;41.80;;;;;;5076873;28;20131;-88
2021/08/15 10:47:12;;;;;;;5.22;1.30;;;40.10;42.40;;;;;;5076884;28;20048;-89
2021/08/15 10:49:46;;;;;;;4.82;2.10;;;40.10;38.90;;;;;;5077356;28;20056;-88
2021/08/15 10:52:34;;;;;;;1.08;1.00;;;39.00;41.50;;;;;;5081412;28;20143;-86
2021/08/15 10:55:05;;;;;;;1.10;1.00;;;37.90;40.70;;;;;;5076869;28;20044;-88
2021/08/15 10:57:40;;;;;;;1.35;1.15;;;38.20;41.30;;;;;;5076212;28;20142;-86
2021/08/15 11:00:29;;;;;;;3.08;0.90;;;37.40;40.70;;;;;;5076297;28;20437;-87
2021/08/15 11:03:12;;;;;;;1.40;1.30;;;37.30;41.90;;;;;;5076562;28;20048;-89
2021/08/15 11:05:40;;;;;;;1.20;1.10;;;37.10;42.40;;;;;;5076365;28;20047;-86
2021/08/15 11:08:31;;;;;;;0.93;0.93;;;36.20;42.70;;;;;;5076310;28;20146;-86
2021/08/15 11:11:25;;;;;;;1.00;0.85;;;36.00;43.50;;;;;;5078476;28;20492;-87
2021/08/15 11:14:18;;;;;;;0.98;0.95;;;36.00;43.00;;;;;;5076759;28;20054;-88
2021/08/15 11:16:51;;;;;;;0.90;0.90;;;36.40;42.70;;;;;;5075826;28;20067;-87
2021/08/15 11:19:18;;;;;;;10.10;2.25;;;36.80;43.00;;;;;;5076611;28;20135;-88
2021/08/15 11:22:10;;;;;;;1.08;1.05;;;36.40;43.40;;;;;;5076340;28;20390;-86
2021/08/15 11:24:39;;;;;;;1.23;1.10;;;36.20;43.70;;;;;;5076188;28;20492;-87
2021/08/15 11:27:07;;;;;;;1.95;1.30;;;36.50;43.70;;;;;;5076059;28;20142;-88
2021/08/15 11:29:37;;;;;;;1.85;1.30;;;36.90;44.40;;;;;;5076498;28;20051;-88
2021/08/15 11:32:04;;;;;;;1.08;1.00;;;37.40;44.10;;;;;;5076347;28;20143;-86
2021/08/15 11:34:35;;;;;;;3.25;1.50;;;37.20;41.40;;;;;;5076650;28;20493;-86
2021/08/15 11:37:05;;;;;;;1.65;1.10;;;36.20;42.60;;;;;;5075371;28;20052;-87
2021/08/15 11:39:37;;;;;;;1.20;1.20;;;35.00;42.90;;;;;;5076080;28;20131;-87
2021/08/15 11:42:07;;;;;;;0.93;0.93;;;34.60;44.30;;;;;;5075985;28;20131;-87
2021/08/15 11:44:57;;;;;;;1.45;1.30;;;34.60;44.00;;;;;;5076002;28;20471;-88
2021/08/15 11:47:31;;;;;;;1.10;1.10;;;34.40;44.90;;;;;;5076085;28;20043;-88
2021/08/15 11:50:00;;;;;;;1.35;1.25;;;34.20;44.50;;;;;;5081644;28;20052;-90
2021/08/15 11:52:37;;;;;;;1.27;1.20;;;34.10;45.20;;;;;;5100054;28;20136;-87
2021/08/15 11:55:20;;;;;;;1.98;1.13;;;34.00;44.30;;;;;;5082625;28;20130;-88
2021/08/15 11:57:55;;;;;;;3.70;1.20;;;34.10;42.50;;;;;;5082231;28;20507;-89
2021/08/15 12:00:31;;;;;;;3.53;1.23;;;33.90;42.50;;;;;;5082617;28;20044;-88
2021/08/15 12:03:06;;;;;;;1.70;0.90;;;33.50;43.00;;;;;;5077998;28;20080;-88
2021/08/15 12:05:44;;;;;;;0.90;0.90;;;33.40;45.10;;;;;;5100004;28;20052;-89
2021/08/15 12:08:17;;;;;;;1.55;1.35;;;33.60;43.60;;;;;;5082052;28;20086;-87
2021/08/15 12:10:47;;;;;;;1.08;1.00;;;33.70;43.80;;;;;;5077805;28;20052;-88
2021/08/15 12:13:16;;;;;;;4.78;1.02;;;33.50;43.30;;;;;;5081987;28;20094;-87
2021/08/15 12:15:46;;;;;;;1.15;1.15;;;33.10;43.10;;;;;;5082053;28;20048;-88
2021/08/15 12:18:29;;;;;;;1.58;1.20;;;33.00;45.20;;;;;;5099789;28;20097;-90
2021/08/15 12:21:01;;;;;;;1.10;1.10;;;32.90;43.60;;;;;;5082242;28;20055;-87
2021/08/15 12:23:30;;;;;;;1.23;1.13;;;32.80;44.90;;;;;;5099894;28;20054;-87
2021/08/15 12:26:06;;;;;;;1.25;1.08;;;32.40;45.30;;;;;;5082338;28;20062;-89
2021/08/15 12:28:35;;;;;;;1.27;1.15;;;32.20;46.50;;;;;;5083422;28;20052;-88
2021/08/15 12:31:23;;;;;;;1.77;1.15;;;32.10;46.50;;;;;;5086377;28;20510;-86
2021/08/15 12:34:01;;;;;;;1.08;1.08;;;31.90;47.70;;;;;;5082045;28;20055;-90
2021/08/15 12:36:30;;;;;;;1.15;1.15;;;31.60;48.40;;;;;;5081654;28;20047;-89
2021/08/15 12:39:05;;;;;;;1.45;0.95;;;31.60;49.70;;;;;;5081999;28;20056;-88
2021/08/15 12:41:57;;;;;;;3.75;1.10;;;31.50;46.90;;;;;;5081980;28;20046;-90
2021/08/15 12:44:33;;;;;;;0.95;0.95;;;31.40;47.00;;;;;;5081993;28;20075;-88
2021/08/15 12:47:09;;;;;;;2.17;1.20;;;30.80;47.50;;;;;;5081870;28;20486;-89
2021/08/15 12:49:39;;;;;;;1.60;0.98;;;30.60;49.00;;;;;;5081924;28;20412;-87
2021/08/15 12:52:10;;;;;;;0.98;0.93;;;30.40;48.90;;;;;;5080458;28;20056;-87
2021/08/15 12:55:15;;;;;;;0.90;0.90;;;30.20;48.70;;;;;;5082452;28;20128;-86